createdAt,value
2023-01-28T00:00:00.927Z,99323.53
2023-01-28T00:05:03.827Z,99320.06
2023-01-28T00:10:09.284Z,99329.69
2023-01-28T00:15:14.869Z,99314.97
2023-01-28T00:20:18.155Z,99314.00
2023-01-28T00:25:22.418Z,99316.78
2023-01-28T00:30:25.197Z,99308.78
2023-01-28T00:35:27.994Z,99305.19
2023-01-28T00:40:32.408Z,99299.22
2023-01-28T00:45:35.135Z,99302.78
2023-01-28T00:50:39.320Z,99306.19
2023-01-28T00:55:44.079Z,99307.06
2023-01-28T01:00:47.155Z,99308.91
2023-01-28T01:05:50.226Z,99302.97
2023-01-28T01:10:54.408Z,99298.50
2023-01-28T01:16:05.011Z,99297.75
2023-01-28T01:21:09.680Z,99308.94
2023-01-28T01:26:14.578Z,99305.41
2023-01-28T01:31:18.962Z,99300.09
2023-01-28T01:36:22.467Z,99292.44
2023-01-28T01:41:29.803Z,99301.19
2023-01-28T01:46:37.249Z,99294.28
2023-01-28T01:51:40.936Z,99301.38
2023-01-28T01:56:48.518Z,99294.44
2023-01-28T02:01:51.855Z,99293.50
2023-01-28T02:06:54.694Z,99302.22
2023-01-28T02:12:03.906Z,99302.34
2023-01-28T02:17:06.851Z,99299.66
2023-01-28T02:22:42.314Z,99309.31
2023-01-28T02:28:02.595Z,99307.72
2023-01-28T02:33:10.353Z,99311.38
2023-01-28T02:38:19.518Z,99312.41
2023-01-28T02:43:32.703Z,99308.63
2023-01-28T02:48:35.573Z,99317.31
2023-01-28T02:53:46.611Z,99327.03
2023-01-28T02:59:00.518Z,99330.63
2023-01-28T03:04:09.196Z,99336.88
2023-01-28T03:09:24.770Z,99345.56
2023-01-28T03:14:51.285Z,99350.03
2023-01-28T03:20:13.023Z,99348.69
2023-01-28T03:25:34.947Z,99353.91
2023-01-28T03:31:03.294Z,99353.19
2023-01-28T03:36:33.432Z,99357.47
2023-01-28T03:41:36.279Z,99360.88
2023-01-28T03:46:40.529Z,99364.50
2023-01-28T03:51:43.827Z,99373.16
2023-01-28T03:56:48.471Z,99375.13
2023-01-28T04:01:52.724Z,99374.34
2023-01-28T04:06:56.231Z,99372.81
2023-01-28T04:12:01.715Z,99373.53
2023-01-28T04:17:11.776Z,99373.41
2023-01-28T04:22:15.376Z,99386.78
2023-01-28T04:27:19.006Z,99386.09
2023-01-28T04:32:24.952Z,99383.72
2023-01-28T04:37:53.861Z,99380.28
2023-01-28T04:43:11.035Z,99397.75
2023-01-28T04:48:30.528Z,99389.75
2023-01-28T04:53:52.003Z,99400.31
2023-01-28T04:59:03.654Z,99394.22
2023-01-28T05:04:09.864Z,99386.25
2023-01-28T05:09:14.757Z,99384.59
2023-01-28T05:14:17.632Z,99387.13
2023-01-28T05:19:47.667Z,99390.72
2023-01-28T05:24:55.977Z,99387.06
2023-01-28T05:29:59.898Z,99394.09
2023-01-28T05:35:06.008Z,99402.09
2023-01-28T05:40:11.146Z,99407.34
2023-01-28T05:45:14.336Z,99409.97
2023-01-28T05:50:38.036Z,99418.59
2023-01-28T05:55:49.673Z,99423.91
2023-01-28T06:00:55.984Z,99424.75
2023-01-28T06:06:05.958Z,99432.63
2023-01-28T06:11:08.692Z,99431.09
2023-01-28T06:16:11.885Z,99430.06
2023-01-28T06:21:35.245Z,99435.44
2023-01-28T06:26:37.963Z,99441.97
2023-01-28T06:31:40.893Z,99446.09
2023-01-28T06:36:45.247Z,99450.75
2023-01-28T06:41:47.986Z,99451.06
2023-01-28T06:46:50.979Z,99452.59
2023-01-28T06:51:55.282Z,99459.78
2023-01-28T06:56:58.083Z,99463.34
2023-01-28T07:02:00.904Z,99470.47
2023-01-28T07:07:05.449Z,99474.00
2023-01-28T07:12:08.443Z,99474.19
2023-01-28T07:17:11.169Z,99476.88
2023-01-28T07:22:15.358Z,99491.88
2023-01-28T07:27:18.268Z,99490.84
2023-01-28T07:32:21.110Z,99488.28
2023-01-28T07:37:25.390Z,99481.03
2023-01-28T07:42:28.314Z,99490.91
2023-01-28T07:47:31.159Z,99488.66
2023-01-28T07:52:38.827Z,99500.91
2023-01-28T07:57:49.804Z,99496.25
2023-01-28T08:02:57.185Z,99489.28
2023-01-28T08:08:01.327Z,99491.13
2023-01-28T08:13:04.187Z,99484.03
2023-01-28T08:18:08.867Z,99495.19
2023-01-28T08:23:15.328Z,99500.22
2023-01-28T08:28:19.110Z,99514.16
2023-01-28T08:33:21.998Z,99518.59
2023-01-28T08:38:26.179Z,99511.53
2023-01-28T08:43:28.968Z,99519.97
2023-01-28T08:48:31.762Z,99527.84
2023-01-28T08:53:36.471Z,99529.56
2023-01-28T08:58:39.302Z,99529.06
2023-01-28T09:03:42.112Z,99541.25
2023-01-28T09:08:46.470Z,99536.78
2023-01-28T09:13:49.330Z,99532.31
2023-01-28T09:18:52.289Z,99537.69
2023-01-28T09:23:58.401Z,99538.72
2023-01-28T09:29:01.376Z,99541.94
2023-01-28T09:34:04.190Z,99538.97
2023-01-28T09:39:08.933Z,99539.97
2023-01-28T09:44:28.423Z,99546.03
2023-01-28T09:49:36.331Z,99552.22
2023-01-28T09:54:46.467Z,99552.09
2023-01-28T09:59:50.168Z,99568.09
2023-01-28T10:05:00.966Z,99573.66
2023-01-28T10:10:12.723Z,99579.13
2023-01-28T10:15:31.677Z,99573.44
2023-01-28T10:20:39.378Z,99585.56
2023-01-28T10:25:48.165Z,99585.47
2023-01-28T10:30:52.087Z,99580.34
2023-01-28T10:35:56.448Z,99582.75
2023-01-28T10:41:03.361Z,99585.00
2023-01-28T10:46:13.005Z,99589.50
2023-01-28T10:51:15.871Z,99594.97
2023-01-28T10:56:28.121Z,99586.84
2023-01-28T11:01:46.328Z,99595.97
2023-01-28T11:06:57.481Z,99582.00
2023-01-28T11:12:12.810Z,99579.03
2023-01-28T11:17:19.366Z,99571.47
2023-01-28T11:22:33.515Z,99577.97
2023-01-28T11:27:38.377Z,99575.03
2023-01-28T11:32:41.431Z,99578.75
2023-01-28T11:37:49.522Z,99564.53
2023-01-28T11:42:56.919Z,99567.97
2023-01-28T11:48:19.231Z,99562.78
2023-01-28T11:53:52.048Z,99554.78
2023-01-28T11:59:09.326Z,99551.66
2023-01-28T12:04:23.957Z,99551.69
2023-01-28T12:09:35.676Z,99538.81
2023-01-28T12:14:59.138Z,99536.16
2023-01-28T12:20:15.494Z,99518.06
2023-01-28T12:25:34.713Z,99522.94
2023-01-28T12:30:54.447Z,99529.25
2023-01-28T12:36:10.032Z,99520.69
2023-01-28T12:41:16.985Z,99524.66
2023-01-28T12:46:30.985Z,99530.38
2023-01-28T12:51:39.582Z,99530.50
2023-01-28T12:56:48.599Z,99528.06
2023-01-28T13:02:02.606Z,99532.41
2023-01-28T13:07:13.272Z,99531.84
2023-01-28T13:12:17.496Z,99533.00
2023-01-28T13:17:30.272Z,99531.88
2023-01-28T13:22:35.156Z,99543.03
2023-01-28T13:27:38.155Z,99539.47
2023-01-28T13:32:42.527Z,99541.19
2023-01-28T13:37:47.076Z,99541.47
2023-01-28T13:42:59.514Z,99544.78
2023-01-28T13:48:20.154Z,99545.25
2023-01-28T13:53:32.302Z,99549.84
2023-01-28T13:58:51.803Z,99537.47
2023-01-28T14:04:45.519Z,99537.97
2023-01-28T14:10:15.146Z,99547.50
2023-01-28T14:15:33.601Z,99551.16
2023-01-28T14:20:42.209Z,99537.53
2023-01-28T14:26:02.633Z,99535.44
2023-01-28T14:31:10.245Z,99517.66
2023-01-28T14:36:13.375Z,99517.81
2023-01-28T14:41:26.106Z,99524.59
2023-01-28T14:46:37.215Z,99523.72
2023-01-28T14:51:54.087Z,99535.31
2023-01-28T14:57:16.492Z,99522.25
2023-01-28T15:02:21.748Z,99519.97
2023-01-28T15:07:27.188Z,99500.31
2023-01-28T15:12:35.359Z,99499.75
2023-01-28T15:17:38.306Z,99515.91
2023-01-28T15:22:43.632Z,99515.75
2023-01-28T15:27:48.524Z,99534.41
2023-01-28T15:33:03.236Z,99539.44
2023-01-28T15:38:06.354Z,99548.59
2023-01-28T15:43:19.355Z,99543.66
2023-01-28T15:48:23.374Z,99544.06
2023-01-28T15:53:26.286Z,99540.28
2023-01-28T15:58:33.573Z,99560.81
2023-01-28T16:03:39.466Z,99566.50
2023-01-28T16:08:49.110Z,99562.28
2023-01-28T16:13:53.891Z,99567.88
2023-01-28T16:18:56.890Z,99561.84
2023-01-28T16:24:02.647Z,99562.13
2023-01-28T16:29:16.849Z,99560.66
2023-01-28T16:34:19.718Z,99556.41
2023-01-28T16:39:22.578Z,99552.34
2023-01-28T16:44:26.622Z,99557.88
2023-01-28T16:49:29.324Z,99560.94
2023-01-28T16:54:32.455Z,99558.72
2023-01-28T16:59:36.657Z,99556.47
2023-01-28T17:04:39.473Z,99555.00
2023-01-28T17:09:42.212Z,99564.94
2023-01-28T17:14:46.320Z,99579.38
2023-01-28T17:19:49.021Z,99591.72
2023-01-28T17:24:51.755Z,99604.78
2023-01-28T17:29:55.875Z,99609.97
2023-01-28T17:34:58.583Z,99634.28
2023-01-28T17:40:01.335Z,99645.59
2023-01-28T17:45:06.095Z,99673.50
2023-01-28T17:50:09.632Z,99660.34
2023-01-28T17:55:12.425Z,99665.56
2023-01-28T18:00:18.075Z,99681.19
2023-01-28T18:05:21.436Z,99682.84
2023-01-28T18:10:24.187Z,99685.44
2023-01-28T18:15:28.441Z,99672.28
2023-01-28T18:20:31.178Z,99666.06
2023-01-28T18:25:34.100Z,99667.78
2023-01-28T18:30:38.284Z,99673.91
2023-01-28T18:35:44.004Z,99667.50
2023-01-28T18:40:47.316Z,99671.81
2023-01-28T18:45:52.174Z,99694.78
2023-01-28T18:50:58.431Z,99697.34
2023-01-28T18:56:02.400Z,99692.19
2023-01-28T19:01:09.988Z,99687.84
2023-01-28T19:06:13.192Z,99679.91
2023-01-28T19:11:16.337Z,99679.97
2023-01-28T19:16:21.063Z,99697.59
2023-01-28T19:21:24.915Z,99701.31
2023-01-28T19:26:28.960Z,99699.63
2023-01-28T19:31:33.095Z,99710.25
2023-01-28T19:36:36.348Z,99688.53
2023-01-28T19:41:39.313Z,99709.56
2023-01-28T19:46:43.475Z,99707.03
2023-01-28T19:51:46.329Z,99711.38
2023-01-28T19:56:49.129Z,99723.81
2023-01-28T20:01:53.403Z,99713.44
2023-01-28T20:06:56.342Z,99718.63
2023-01-28T20:11:59.051Z,99718.63
2023-01-28T20:17:03.144Z,99712.56
2023-01-28T20:22:05.884Z,99716.06
2023-01-28T20:27:08.679Z,99710.00
2023-01-28T20:32:18.292Z,99718.91
2023-01-28T20:37:22.878Z,99729.38
2023-01-28T20:42:25.727Z,99725.06
2023-01-28T20:47:29.840Z,99712.03
2023-01-28T20:52:32.641Z,99708.66
2023-01-28T20:57:36.696Z,99708.69
2023-01-28T21:02:43.887Z,99712.13
2023-01-28T21:07:46.724Z,99715.69
2023-01-28T21:12:49.932Z,99719.09
2023-01-28T21:17:54.009Z,99721.69
2023-01-28T21:22:57.163Z,99721.66
2023-01-28T21:27:59.933Z,99723.47
2023-01-28T21:33:04.231Z,99732.16
2023-01-28T21:38:07.527Z,99726.00
2023-01-28T21:43:12.482Z,99720.03
2023-01-28T21:48:17.358Z,99720.09
2023-01-28T21:53:20.113Z,99713.97
2023-01-28T21:58:40.673Z,99710.41
2023-01-28T22:03:44.892Z,99712.09
2023-01-28T22:08:47.613Z,99703.34
2023-01-28T22:13:50.904Z,99707.69
2023-01-28T22:18:55.136Z,99702.47
2023-01-28T22:23:58.245Z,99691.03
2023-01-28T22:29:01.762Z,99674.69
2023-01-28T22:34:06.733Z,99672.00
2023-01-28T22:39:13.958Z,99679.03
2023-01-28T22:44:19.660Z,99679.88
2023-01-28T22:49:26.637Z,99680.84
2023-01-28T22:54:29.707Z,99681.06
2023-01-28T22:59:33.512Z,99684.47
2023-01-28T23:04:37.582Z,99686.22
2023-01-28T23:09:40.398Z,99678.38
2023-01-28T23:15:00.687Z,99691.53
2023-01-28T23:20:22.394Z,99692.44
2023-01-28T23:25:25.351Z,99697.66
2023-01-28T23:30:28.399Z,99702.78
2023-01-28T23:35:32.771Z,99681.94
2023-01-28T23:40:35.557Z,99680.31
2023-01-28T23:45:38.337Z,99689.19
2023-01-28T23:50:44.771Z,99693.72
2023-01-28T23:55:47.559Z,99687.78
